createdAt,value
2023-05-20T00:02:27.928Z,5.90
2023-05-20T00:05:01.073Z,6.50
2023-05-20T00:07:34.147Z,6.38
2023-05-20T00:10:08.589Z,5.80
2023-05-20T00:12:42.989Z,6.35
2023-05-20T00:15:17.589Z,5.90
2023-05-20T00:17:50.795Z,5.78
2023-05-20T00:20:23.898Z,6.03
2023-05-20T00:22:56.978Z,5.82
2023-05-20T00:25:31.691Z,7.00
2023-05-20T00:28:07.504Z,6.07
2023-05-20T00:30:41.922Z,6.18
2023-05-20T00:33:15.037Z,6.97
2023-05-20T00:35:48.087Z,6.32
2023-05-20T00:38:21.187Z,6.55
2023-05-20T00:40:54.240Z,6.80
2023-05-20T00:43:28.993Z,6.18
2023-05-20T00:46:02.966Z,6.60
2023-05-20T00:48:42.372Z,6.25
2023-05-20T00:51:15.957Z,6.40
2023-05-20T00:53:49.184Z,6.57
2023-05-20T00:56:22.908Z,6.30
2023-05-20T00:58:57.571Z,6.43
2023-05-20T01:01:30.718Z,6.82
2023-05-20T01:04:04.437Z,6.57
2023-05-20T01:06:38.965Z,7.03
2023-05-20T01:09:12.087Z,6.50
2023-05-20T01:11:52.989Z,6.15
2023-05-20T01:14:31.320Z,5.85
2023-05-20T01:17:11.165Z,6.40
2023-05-20T01:19:45.683Z,6.60
2023-05-20T01:22:18.779Z,6.93
2023-05-20T01:24:53.904Z,6.68
2023-05-20T01:27:27.072Z,6.47
2023-05-20T01:30:00.323Z,6.90
2023-05-20T01:32:38.723Z,6.40
2023-05-20T01:35:12.397Z,6.82
2023-05-20T01:37:46.421Z,6.47
2023-05-20T01:40:21.206Z,6.70
2023-05-20T01:42:55.896Z,5.95
2023-05-20T01:45:29.050Z,6.60
2023-05-20T01:48:03.591Z,6.07
2023-05-20T01:50:36.659Z,6.50
2023-05-20T01:53:09.766Z,6.20
2023-05-20T01:55:44.206Z,7.63
2023-05-20T01:58:17.273Z,6.18
2023-05-20T02:00:50.520Z,6.50
2023-05-20T02:03:23.786Z,6.82
2023-05-20T02:05:57.051Z,6.35
2023-05-20T02:08:30.137Z,6.40
2023-05-20T02:11:04.597Z,6.68
2023-05-20T02:13:37.616Z,5.97
2023-05-20T02:16:10.775Z,5.70
2023-05-20T02:18:44.050Z,6.22
2023-05-20T02:21:17.150Z,6.45
2023-05-20T02:23:50.425Z,6.50
2023-05-20T02:26:25.266Z,6.30
2023-05-20T02:28:58.335Z,6.05
2023-05-20T02:31:31.446Z,6.60
2023-05-20T02:34:05.042Z,6.55
2023-05-20T02:36:38.193Z,6.80
2023-05-20T02:39:11.586Z,6.40
2023-05-20T02:41:45.976Z,6.85
2023-05-20T02:44:19.095Z,6.43
2023-05-20T02:46:52.191Z,7.38
2023-05-20T02:49:25.405Z,6.75
2023-05-20T02:51:58.477Z,6.65
2023-05-20T02:54:31.488Z,6.50
2023-05-20T02:57:06.424Z,6.60
2023-05-20T02:59:39.628Z,6.85
2023-05-20T03:02:12.694Z,6.65
2023-05-20T03:04:47.339Z,6.38
2023-05-20T03:07:21.646Z,7.18
2023-05-20T03:09:54.837Z,6.60
2023-05-20T03:12:29.259Z,6.32
2023-05-20T03:15:02.305Z,6.40
2023-05-20T03:17:35.752Z,6.70
2023-05-20T03:20:10.742Z,6.32
2023-05-20T03:22:43.823Z,6.40
2023-05-20T03:25:16.900Z,6.53
2023-05-20T03:27:51.524Z,6.22
2023-05-20T03:30:25.126Z,6.85
2023-05-20T03:32:58.729Z,6.30
2023-05-20T03:35:32.046Z,6.78
2023-05-20T03:38:05.371Z,6.93
2023-05-20T03:40:38.471Z,6.30
2023-05-20T03:43:12.875Z,6.68
2023-05-20T03:45:46.081Z,6.38
2023-05-20T03:48:20.159Z,6.60
2023-05-20T03:50:53.257Z,6.10
2023-05-20T03:53:26.470Z,6.53
2023-05-20T03:55:59.560Z,6.65
2023-05-20T03:58:34.005Z,6.38
2023-05-20T04:01:07.122Z,6.88
2023-05-20T04:03:42.304Z,6.75
2023-05-20T04:06:16.023Z,6.75
2023-05-20T04:08:49.136Z,7.15
2023-05-20T04:11:22.469Z,7.15
2023-05-20T04:13:56.889Z,6.32
2023-05-20T04:16:30.500Z,7.10
2023-05-20T04:19:03.591Z,7.03
2023-05-20T04:21:36.700Z,6.60
2023-05-20T04:24:09.743Z,6.72
2023-05-20T04:26:43.163Z,6.82
2023-05-20T04:29:18.858Z,6.97
2023-05-20T04:31:52.169Z,7.70
2023-05-20T04:34:26.944Z,6.50
2023-05-20T04:37:00.371Z,6.82
2023-05-20T04:39:33.423Z,6.75
2023-05-20T04:42:07.189Z,6.78
2023-05-20T04:44:42.419Z,6.68
2023-05-20T04:47:15.730Z,7.13
2023-05-20T04:49:50.310Z,7.00
2023-05-20T04:52:23.582Z,6.30
2023-05-20T04:54:58.236Z,7.25
2023-05-20T04:57:31.323Z,6.82
2023-05-20T05:00:08.014Z,6.07
2023-05-20T05:02:41.465Z,5.68
2023-05-20T05:05:14.645Z,6.50
2023-05-20T05:07:47.689Z,6.80
2023-05-20T05:10:21.956Z,6.15
2023-05-20T05:12:55.042Z,5.72
2023-05-20T05:15:29.921Z,6.07
2023-05-20T05:18:03.364Z,6.25
2023-05-20T05:20:36.506Z,5.63
2023-05-20T05:23:09.713Z,5.93
2023-05-20T05:25:42.855Z,6.25
2023-05-20T05:28:16.000Z,6.22
2023-05-20T05:30:50.721Z,6.10
2023-05-20T05:33:23.859Z,6.07
2023-05-20T05:35:59.099Z,6.75
2023-05-20T05:38:32.502Z,6.65
2023-05-20T05:41:05.643Z,6.20
2023-05-20T05:43:39.102Z,6.32
2023-05-20T05:46:13.700Z,6.60
2023-05-20T05:48:49.213Z,5.82
2023-05-20T05:51:22.532Z,5.60
2023-05-20T05:53:56.146Z,6.30
2023-05-20T05:56:29.240Z,5.38
2023-05-20T05:59:02.494Z,6.07
2023-05-20T06:01:37.474Z,6.07
2023-05-20T06:04:10.833Z,6.05
2023-05-20T06:06:44.075Z,7.05
2023-05-20T06:09:17.203Z,6.20
2023-05-20T06:11:50.493Z,6.13
2023-05-20T06:14:23.984Z,7.00
2023-05-20T06:16:58.643Z,6.40
2023-05-20T06:19:31.889Z,6.63
2023-05-20T06:22:05.643Z,7.05
2023-05-20T06:24:38.842Z,6.90
2023-05-20T06:27:12.207Z,7.28
2023-05-20T06:29:45.368Z,7.10
2023-05-20T06:32:19.927Z,7.05
2023-05-20T06:34:53.089Z,7.15
2023-05-20T06:37:26.323Z,7.65
2023-05-20T06:39:59.517Z,7.70
2023-05-20T06:42:32.638Z,7.95
2023-05-20T06:45:06.950Z,7.20
2023-05-20T06:47:41.430Z,8.88
2023-05-20T06:50:14.655Z,8.40
2023-05-20T06:52:47.759Z,8.20
2023-05-20T06:55:21.096Z,7.70
2023-05-20T06:57:55.274Z,8.02
2023-05-20T07:00:28.303Z,8.65
2023-05-20T07:03:02.851Z,8.90
2023-05-20T07:05:38.701Z,8.60
2023-05-20T07:08:12.298Z,9.25
2023-05-20T07:10:46.536Z,8.55
2023-05-20T07:13:19.884Z,8.00
2023-05-20T07:15:53.216Z,8.65
2023-05-20T07:18:28.472Z,8.52
2023-05-20T07:21:01.513Z,8.40
2023-05-20T07:23:34.599Z,7.40
2023-05-20T07:26:07.719Z,9.20
2023-05-20T07:28:40.872Z,8.00
2023-05-20T07:31:14.432Z,8.65
2023-05-20T07:33:48.794Z,8.52
2023-05-20T07:36:21.891Z,8.02
2023-05-20T07:39:02.474Z,8.25
2023-05-20T07:41:37.411Z,7.80
2023-05-20T07:44:11.281Z,8.60
2023-05-20T07:46:44.568Z,7.57
2023-05-20T07:49:18.998Z,8.05
2023-05-20T07:51:52.107Z,7.88
2023-05-20T07:54:25.288Z,7.60
2023-05-20T07:57:00.269Z,7.53
2023-05-20T07:59:33.284Z,7.22
2023-05-20T08:02:07.080Z,6.93
2023-05-20T08:04:41.553Z,7.32
2023-05-20T08:07:14.578Z,7.28
2023-05-20T08:09:47.628Z,6.60
2023-05-20T08:12:20.807Z,6.63
2023-05-20T08:14:55.487Z,7.72
2023-05-20T08:17:28.555Z,6.85
2023-05-20T08:20:03.305Z,7.20
2023-05-20T08:22:37.568Z,7.38
2023-05-20T08:25:11.445Z,7.68
2023-05-20T08:27:44.598Z,7.38
2023-05-20T08:30:17.669Z,7.25
2023-05-20T08:32:50.839Z,7.13
2023-05-20T08:35:25.694Z,7.75
2023-05-20T08:37:58.891Z,7.53
2023-05-20T08:40:32.051Z,6.97
2023-05-20T08:43:06.011Z,8.30
2023-05-20T08:45:40.153Z,7.75
2023-05-20T08:48:13.776Z,7.00
2023-05-20T08:50:52.866Z,6.65
2023-05-20T08:53:26.671Z,7.20
2023-05-20T08:56:02.787Z,6.80
2023-05-20T08:58:36.008Z,6.68
2023-05-20T09:01:09.518Z,7.35
2023-05-20T09:03:43.514Z,7.57
2023-05-20T09:06:20.153Z,7.05
2023-05-20T09:08:53.265Z,7.90
2023-05-20T09:11:27.275Z,6.10
2023-05-20T09:14:00.337Z,7.00
2023-05-20T09:16:33.418Z,6.32
2023-05-20T09:19:09.806Z,6.68
2023-05-20T09:21:44.310Z,6.97
2023-05-20T09:24:24.071Z,7.20
2023-05-20T09:26:57.715Z,6.80
2023-05-20T09:29:35.030Z,6.70
2023-05-20T09:32:08.834Z,6.20
2023-05-20T09:34:43.043Z,6.47
2023-05-20T09:37:20.402Z,6.40
2023-05-20T09:39:59.548Z,6.90
2023-05-20T09:42:41.556Z,6.70
2023-05-20T09:45:14.615Z,7.20
2023-05-20T09:47:48.282Z,6.15
2023-05-20T09:50:23.351Z,7.05
2023-05-20T09:52:57.788Z,6.35
2023-05-20T09:55:32.008Z,7.03
2023-05-20T09:58:05.213Z,6.30
2023-05-20T10:00:38.455Z,6.50
2023-05-20T10:03:11.743Z,6.88
2023-05-20T10:05:56.475Z,6.35
2023-05-20T10:08:51.428Z,6.70
2023-05-20T10:11:34.258Z,7.25
2023-05-20T10:14:27.484Z,6.75
2023-05-20T10:17:10.828Z,5.75
2023-05-20T10:19:44.884Z,6.05
2023-05-20T10:22:29.102Z,6.45
2023-05-20T10:25:11.067Z,6.22
2023-05-20T10:27:45.541Z,6.80
2023-05-20T10:30:21.233Z,6.25
2023-05-20T10:32:57.438Z,6.43
2023-05-20T10:35:30.887Z,6.32
2023-05-20T10:38:13.001Z,6.40
2023-05-20T10:40:47.396Z,6.75
2023-05-20T10:43:28.865Z,6.60
2023-05-20T10:46:04.855Z,6.53
2023-05-20T10:48:44.262Z,6.43
2023-05-20T10:51:17.979Z,5.60
2023-05-20T10:53:56.133Z,6.47
2023-05-20T10:56:30.727Z,6.45
2023-05-20T10:59:04.023Z,6.57
2023-05-20T11:01:37.159Z,6.20
2023-05-20T11:04:12.226Z,6.03
2023-05-20T11:06:53.627Z,6.85
2023-05-20T11:09:26.743Z,6.05
2023-05-20T11:12:01.729Z,5.82
2023-05-20T11:14:36.507Z,6.10
2023-05-20T11:17:09.716Z,5.63
2023-05-20T11:19:43.050Z,5.50
2023-05-20T11:22:16.655Z,6.45
2023-05-20T11:24:49.745Z,5.35
2023-05-20T11:27:24.103Z,6.30
2023-05-20T11:29:57.558Z,6.88
2023-05-20T11:32:30.738Z,6.35
2023-05-20T11:35:04.908Z,6.18
2023-05-20T11:37:37.903Z,6.22
2023-05-20T11:40:13.268Z,5.57
2023-05-20T11:42:47.732Z,5.30
2023-05-20T11:45:20.767Z,5.68
2023-05-20T11:48:01.874Z,5.60
2023-05-20T11:50:39.381Z,5.35
2023-05-20T11:53:17.858Z,5.65
2023-05-20T11:55:52.732Z,5.90
2023-05-20T11:58:30.141Z,6.10
2023-05-20T12:01:17.925Z,5.40
2023-05-20T12:03:55.366Z,5.45
2023-05-20T12:06:29.394Z,5.60
2023-05-20T12:09:06.881Z,5.80
2023-05-20T12:11:42.192Z,5.35
2023-05-20T12:14:16.829Z,5.40
2023-05-20T12:16:49.867Z,5.25
2023-05-20T12:19:22.942Z,5.85
2023-05-20T12:21:56.000Z,5.72
2023-05-20T12:24:29.033Z,5.55
2023-05-20T12:27:04.066Z,5.43
2023-05-20T12:29:38.401Z,5.38
2023-05-20T12:32:11.416Z,5.00
2023-05-20T12:34:44.429Z,5.70
2023-05-20T12:37:17.589Z,5.85
2023-05-20T12:39:50.642Z,5.25
2023-05-20T12:42:23.633Z,5.13
2023-05-20T12:44:57.961Z,5.75
2023-05-20T12:47:31.162Z,5.32
2023-05-20T12:50:05.114Z,4.68
2023-05-20T12:52:38.116Z,5.60
2023-05-20T12:55:13.816Z,4.95
2023-05-20T12:57:48.754Z,4.68
2023-05-20T13:00:23.191Z,4.88
2023-05-20T13:02:56.346Z,4.78
2023-05-20T13:05:29.461Z,5.30
2023-05-20T13:08:02.493Z,5.03
2023-05-20T13:10:35.937Z,5.00
2023-05-20T13:13:09.266Z,4.90
2023-05-20T13:15:43.607Z,4.95
2023-05-20T13:18:17.340Z,4.30
2023-05-20T13:20:50.520Z,4.95
2023-05-20T13:23:23.555Z,4.30
2023-05-20T13:25:56.598Z,5.00
2023-05-20T13:28:29.629Z,4.88
2023-05-20T13:31:07.849Z,4.82
2023-05-20T13:33:40.925Z,4.40
2023-05-20T13:36:14.911Z,5.03
2023-05-20T13:38:47.916Z,5.03
2023-05-20T13:41:21.042Z,5.60
2023-05-20T13:43:54.559Z,4.55
2023-05-20T13:46:28.966Z,5.03
2023-05-20T13:49:02.085Z,4.47
2023-05-20T13:51:35.115Z,4.22
2023-05-20T13:54:08.156Z,4.00
2023-05-20T13:56:41.274Z,4.68
2023-05-20T13:59:14.319Z,5.10
2023-05-20T14:01:48.703Z,5.15
2023-05-20T14:04:22.255Z,5.25
2023-05-20T14:06:55.655Z,5.10
2023-05-20T14:09:28.700Z,5.43
2023-05-20T14:12:01.926Z,5.47
2023-05-20T14:14:35.315Z,5.00
2023-05-20T14:17:09.750Z,5.00
2023-05-20T14:19:43.277Z,4.97
2023-05-20T14:22:16.368Z,5.10
2023-05-20T14:24:49.400Z,5.40
2023-05-20T14:27:22.443Z,6.10
2023-05-20T14:29:55.450Z,5.25
2023-05-20T14:32:30.093Z,5.00
2023-05-20T14:35:03.342Z,5.10
2023-05-20T14:37:36.364Z,4.88
2023-05-20T14:40:10.796Z,5.13
2023-05-20T14:42:43.888Z,5.28
2023-05-20T14:45:17.094Z,4.80
2023-05-20T14:47:51.676Z,6.05
2023-05-20T14:50:24.814Z,5.57
2023-05-20T14:52:57.826Z,5.78
2023-05-20T14:55:30.882Z,5.70
2023-05-20T14:58:04.016Z,6.13
2023-05-20T15:00:37.304Z,5.18
2023-05-20T15:03:12.576Z,5.35
2023-05-20T15:05:45.824Z,5.82
2023-05-20T15:08:19.166Z,5.68
2023-05-20T15:10:52.205Z,5.57
2023-05-20T15:13:25.249Z,5.82
2023-05-20T15:15:58.346Z,5.40
2023-05-20T15:18:32.763Z,5.68
2023-05-20T15:21:06.577Z,5.50
2023-05-20T15:23:39.635Z,5.53
2023-05-20T15:26:12.894Z,5.25
2023-05-20T15:28:46.119Z,5.43
2023-05-20T15:31:19.514Z,6.05
2023-05-20T15:33:54.018Z,5.40
2023-05-20T15:36:27.164Z,5.30
2023-05-20T15:39:00.242Z,5.13
2023-05-20T15:41:33.823Z,5.18
2023-05-20T15:44:06.881Z,4.88
2023-05-20T15:46:39.995Z,4.50
2023-05-20T15:49:14.472Z,5.35
2023-05-20T15:51:59.121Z,5.00
2023-05-20T15:54:35.782Z,5.43
2023-05-20T15:57:08.834Z,4.55
2023-05-20T15:59:41.870Z,4.50
2023-05-20T16:02:14.982Z,4.22
2023-05-20T16:04:49.459Z,4.25
2023-05-20T16:07:22.471Z,4.65
2023-05-20T16:09:55.678Z,4.65
2023-05-20T16:12:28.821Z,5.00
2023-05-20T16:15:02.136Z,4.65
2023-05-20T16:17:35.242Z,5.15
2023-05-20T16:20:10.983Z,5.35
2023-05-20T16:22:44.047Z,5.05
2023-05-20T16:25:17.263Z,5.30
2023-05-20T16:27:50.425Z,5.35
2023-05-20T16:30:23.453Z,5.53
2023-05-20T16:32:56.625Z,5.07
2023-05-20T16:35:31.069Z,5.68
2023-05-20T16:38:04.199Z,5.40
2023-05-20T16:40:37.244Z,5.22
2023-05-20T16:43:10.397Z,4.93
2023-05-20T16:45:43.627Z,5.20
2023-05-20T16:48:16.780Z,4.85
2023-05-20T16:50:51.266Z,5.03
2023-05-20T16:53:24.409Z,4.85
2023-05-20T16:55:57.479Z,4.90
2023-05-20T16:58:31.118Z,5.40
2023-05-20T17:01:04.421Z,4.88
2023-05-20T17:03:37.575Z,5.30
2023-05-20T17:06:12.475Z,5.85
2023-05-20T17:08:45.512Z,5.50
2023-05-20T17:11:18.699Z,5.55
2023-05-20T17:13:51.823Z,6.22
2023-05-20T17:16:24.941Z,6.20
2023-05-20T17:18:58.729Z,6.63
2023-05-20T17:21:34.595Z,7.00
2023-05-20T17:24:08.222Z,6.57
2023-05-20T17:26:41.397Z,5.53
2023-05-20T17:29:14.435Z,6.30
2023-05-20T17:31:47.869Z,6.07
2023-05-20T17:34:23.894Z,5.22
2023-05-20T17:37:04.421Z,5.70
2023-05-20T17:39:37.430Z,5.65
2023-05-20T17:42:10.907Z,6.00
2023-05-20T17:44:43.978Z,5.75
2023-05-20T17:47:17.183Z,5.93
2023-05-20T17:49:50.616Z,5.43
2023-05-20T17:52:25.217Z,6.05
2023-05-20T17:54:58.288Z,5.97
2023-05-20T17:57:31.299Z,6.13
2023-05-20T18:00:06.526Z,5.70
2023-05-20T18:02:39.721Z,6.15
2023-05-20T18:05:13.645Z,6.45
2023-05-20T18:07:48.016Z,5.93
2023-05-20T18:10:21.087Z,6.40
2023-05-20T18:12:54.086Z,6.18
2023-05-20T18:15:27.090Z,6.03
2023-05-20T18:18:00.508Z,5.95
2023-05-20T18:20:33.699Z,6.07
2023-05-20T18:23:08.150Z,5.78
2023-05-20T18:25:42.735Z,6.70
2023-05-20T18:28:21.089Z,5.90
2023-05-20T18:30:55.514Z,5.55
2023-05-20T18:33:28.583Z,6.25
2023-05-20T18:36:01.811Z,6.07
2023-05-20T18:38:37.075Z,6.28
2023-05-20T18:41:11.178Z,6.85
2023-05-20T18:43:44.167Z,7.00
2023-05-20T18:46:18.157Z,6.90
2023-05-20T18:48:51.281Z,7.13
2023-05-20T18:51:25.741Z,7.22
2023-05-20T18:54:00.554Z,7.07
2023-05-20T18:56:34.046Z,7.90
2023-05-20T18:59:07.606Z,8.55
2023-05-20T19:01:41.329Z,8.00
2023-05-20T19:04:14.382Z,8.60
2023-05-20T19:06:48.090Z,9.18
2023-05-20T19:09:22.621Z,8.60
2023-05-20T19:11:58.890Z,8.38
2023-05-20T19:14:32.004Z,8.48
2023-05-20T19:17:05.441Z,8.35
2023-05-20T19:19:38.612Z,9.15
2023-05-20T19:22:11.697Z,8.32
2023-05-20T19:24:46.076Z,8.32
2023-05-20T19:27:19.128Z,9.60
2023-05-20T19:29:52.177Z,8.82
2023-05-20T19:32:25.392Z,9.43
2023-05-20T19:34:58.438Z,9.23
2023-05-20T19:37:32.429Z,9.52
2023-05-20T19:40:09.119Z,8.48
2023-05-20T19:42:42.135Z,10.13
2023-05-20T19:45:15.433Z,10.35
2023-05-20T19:47:48.592Z,8.90
2023-05-20T19:50:21.843Z,9.10
2023-05-20T19:52:54.880Z,9.35
2023-05-20T19:55:29.290Z,8.52
2023-05-20T19:58:02.319Z,8.88
2023-05-20T20:00:36.164Z,9.07
2023-05-20T20:03:09.623Z,9.45
2023-05-20T20:05:43.241Z,9.50
2023-05-20T20:08:17.016Z,9.38
2023-05-20T20:10:51.468Z,9.27
2023-05-20T20:13:24.702Z,9.80
2023-05-20T20:15:58.731Z,9.20
2023-05-20T20:18:32.961Z,9.68
2023-05-20T20:21:06.483Z,8.85
2023-05-20T20:23:40.254Z,9.40
2023-05-20T20:26:15.987Z,10.20
2023-05-20T20:28:49.094Z,9.50
2023-05-20T20:31:22.318Z,9.65
2023-05-20T20:33:55.449Z,9.43
2023-05-20T20:36:32.185Z,10.25
2023-05-20T20:39:05.442Z,10.25
2023-05-20T20:41:39.846Z,10.10
2023-05-20T20:44:16.685Z,10.65
2023-05-20T20:46:51.391Z,10.82
2023-05-20T20:49:25.796Z,10.32
2023-05-20T20:52:01.131Z,10.82
2023-05-20T20:54:34.203Z,10.48
2023-05-20T20:57:09.107Z,10.75
2023-05-20T20:59:47.514Z,11.15
2023-05-20T21:02:20.788Z,11.20
2023-05-20T21:05:02.000Z,10.27
2023-05-20T21:07:39.091Z,10.57
2023-05-20T21:10:17.838Z,10.70
2023-05-20T21:12:57.296Z,10.70
2023-05-20T21:15:30.375Z,11.02
2023-05-20T21:18:03.587Z,11.27
2023-05-20T21:20:36.641Z,11.60
2023-05-20T21:23:09.704Z,11.35
2023-05-20T21:25:43.994Z,10.40
2023-05-20T21:28:18.578Z,11.27
2023-05-20T21:30:51.701Z,10.95
2023-05-20T21:33:24.772Z,11.02
2023-05-20T21:35:58.421Z,12.32
2023-05-20T21:38:31.557Z,11.68
2023-05-20T21:41:04.673Z,11.80
2023-05-20T21:43:39.222Z,13.00
2023-05-20T21:46:13.379Z,11.25
2023-05-20T21:48:46.542Z,11.50
2023-05-20T21:51:19.624Z,11.45
2023-05-20T21:53:52.690Z,11.98
2023-05-20T21:56:26.359Z,11.73
2023-05-20T21:59:00.747Z,12.73
2023-05-20T22:01:34.017Z,12.85
2023-05-20T22:04:07.767Z,13.02
2023-05-20T22:06:41.082Z,12.68
2023-05-20T22:09:14.283Z,11.60
2023-05-20T22:11:48.085Z,12.88
2023-05-20T22:14:23.558Z,12.57
2023-05-20T22:16:58.518Z,12.65
2023-05-20T22:19:31.664Z,12.55
2023-05-20T22:22:05.271Z,12.73
2023-05-20T22:24:38.298Z,12.57
2023-05-20T22:27:11.458Z,13.00
2023-05-20T22:29:46.202Z,12.88
2023-05-20T22:32:19.482Z,13.20
2023-05-20T22:34:53.490Z,12.93
2023-05-20T22:37:28.814Z,13.63
2023-05-20T22:40:02.238Z,13.00
2023-05-20T22:42:35.534Z,13.50
2023-05-20T22:45:11.671Z,13.30
2023-05-20T22:47:44.893Z,13.15
2023-05-20T22:50:18.189Z,13.88
2023-05-20T22:52:51.363Z,14.20
2023-05-20T22:55:24.857Z,13.07
2023-05-20T22:57:57.966Z,13.98
2023-05-20T23:00:32.331Z,14.43
2023-05-20T23:03:05.951Z,14.63
2023-05-20T23:05:39.125Z,14.60
2023-05-20T23:08:12.219Z,13.85
2023-05-20T23:10:45.300Z,14.15
2023-05-20T23:13:18.373Z,13.98
2023-05-20T23:15:52.842Z,13.70
2023-05-20T23:18:25.953Z,14.65
2023-05-20T23:20:59.449Z,14.35
2023-05-20T23:23:32.546Z,15.68
2023-05-20T23:26:14.546Z,14.05
2023-05-20T23:28:47.852Z,14.38
2023-05-20T23:31:22.657Z,14.93
2023-05-20T23:33:57.878Z,15.27
2023-05-20T23:36:34.575Z,14.23
2023-05-20T23:39:07.909Z,14.15
2023-05-20T23:41:40.956Z,13.93
2023-05-20T23:44:22.865Z,15.02
2023-05-20T23:47:07.686Z,14.38
2023-05-20T23:49:41.600Z,13.75
2023-05-20T23:52:41.339Z,14.75
2023-05-20T23:55:15.167Z,14.75
2023-05-20T23:57:49.718Z,15.10
